| time (UTC) | temp F | wind direction | speed knots | gust knots | rain 1hr in | rain 24hr in | rain mn in | humidity % | barometer mb |
| 20260508102000 | 70 | 146 | 0.9 | 9.6 | 0.00 | 0.00 | 0.00 | 37 | 1021.0 |
| 20260508101000 | 69 | 0 | 0.0 | 0.0 | 0.00 | 0.00 | 0.00 | 39 | 1021.0 |
| 20260508100000 | 69 | 59 | 1.7 | 6.1 | 0.00 | 0.00 | 0.00 | 38 | 1021.0 |
| 20260508095000 | 69 | 122 | 3.5 | 5.2 | 0.00 | 0.00 | 0.00 | 37 | 1021.0 |
| 20260508094000 | 68 | 164 | 2.6 | 4.3 | 0.00 | 0.00 | 0.00 | 39 | 1021.0 |
| 20260508093000 | 68 | 175 | 3.5 | 8.7 | 0.00 | 0.00 | 0.00 | 38 | 1021.0 |
| 20260508092000 | 68 | 246 | 1.7 | 5.2 | 0.00 | 0.00 | 0.00 | 38 | 1021.0 |
| 20260508091000 | 68 | 262 | 3.5 | 7.0 | 0.00 | 0.00 | 0.00 | 38 | 1021.0 |
| 20260508090000 | 67 | 269 | 3.5 | 4.3 | 0.00 | 0.00 | 0.00 | 41 | 1021.0 |
| 20260508085000 | 68 | 241 | 1.7 | 5.2 | 0.00 | 0.00 | 0.00 | 42 | 1021.0 |
| 20260508084000 | 68 | 188 | 0.9 | 3.5 | 0.00 | 0.00 | 0.00 | 42 | 1021.0 |
| 20260508083000 | 68 | 207 | 0.9 | 4.3 | 0.00 | 0.00 | 0.00 | 44 | 1021.0 |
| 20260508082000 | 67 | 143 | 1.7 | 3.5 | 0.00 | 0.00 | 0.00 | 46 | 1021.0 |
| 20260508081000 | 67 | 238 | 0.9 | 3.5 | 0.00 | 0.00 | 0.00 | 45 | 1021.0 |
| 20260508080000 | 68 | 24 | 1.7 | 2.6 | 0.00 | 0.00 | 0.00 | 45 | 1021.0 |
| 20260508075000 | 67 | 237 | 1.7 | 5.2 | 0.00 | 0.00 | 0.00 | 45 | 1021.0 |
| 20260508074000 | 68 | 287 | 2.6 | 4.3 | 0.00 | 0.00 | 0.00 | 44 | 1021.0 |
| 20260508073000 | 69 | 108 | 1.7 | 4.3 | 0.00 | 0.00 | 0.00 | 43 | 1021.0 |
| 20260508072000 | 68 | 346 | 0.9 | 3.5 | 0.00 | 0.00 | 0.00 | 45 | 1021.0 |
| 20260508071000 | 66 | 4 | 2.6 | 5.2 | 0.00 | 0.00 | 0.00 | 44 | 1021.0 |
| 20260508070000 | 65 | 269 | 1.7 | 3.5 | 0.00 | 0.00 | 0.00 | 47 | 1021.0 |
| 20260508065000 | 65 | 226 | 1.7 | 2.6 | 0.00 | 0.00 | 0.00 | 48 | 1021.0 |
| 20260508064000 | 64 | 247 | 0.9 | 3.5 | 0.00 | 0.00 | 0.00 | 48 | 1021.0 |
| 20260508063000 | 63 | 247 | 1.7 | 2.6 | 0.00 | 0.00 | 0.00 | 52 | 1021.0 |
| 20260508062000 | 63 | 287 | 2.6 | 4.3 | 0.00 | 0.00 | 0.00 | 51 | 1021.0 |
| 20260508061000 | 63 | 289 | 1.7 | 4.3 | 0.00 | 0.00 | 0.00 | 53 | 1021.0 |
| 20260508060001 | 63 | 275 | 3.5 | 4.3 | 0.00 | 0.00 | 0.00 | 55 | 1021.0 |
| 20260508055000 | 62 | 320 | 3.5 | 5.2 | 0.00 | 0.00 | 0.00 | 56 | 1021.0 |
| 20260508054000 | 60 | 256 | 2.6 | 3.5 | 0.00 | 0.00 | 0.00 | 59 | 1021.0 |
| 20260508053000 | 56 | 255 | 0.0 | 1.7 | 0.00 | 0.00 | 0.00 | 67 | 1021.0 |
| 20260508052000 | 54 | 315 | 0.0 | 1.7 | 0.00 | 0.00 | 0.00 | 70 | 1021.0 |
| 20260508051000 | 52 | 322 | 0.0 | 1.7 | 0.00 | 0.00 | 0.00 | 73 | 1021.0 |
| 20260508050000 | 50 | 343 | 0.0 | 1.7 | 0.00 | 0.00 | 0.00 | 75 | 1021.0 |
| 20260508045000 | 49 | 344 | 0.9 | 1.7 | 0.00 | 0.00 | 0.00 | 78 | 1021.0 |
| 20260508044000 | 48 | 346 | 0.0 | 1.7 | 0.00 | 0.00 | 0.00 | 79 | 1021.0 |
| 20260508043000 | 47 | 346 | 0.0 | 0.9 | 0.00 | 0.00 | 0.00 | 80 | 1021.0 |
| 20260508042000 | 46 | 346 | 0.0 | 0.0 | 0.00 | 0.00 | 0.00 | 81 | 1021.0 |
| 20260508041000 | 46 | 347 | 0.0 | 0.9 | 0.00 | 0.00 | 0.00 | 81 | 1021.0 |
| 20260508040000 | 45 | 346 | 0.9 | 1.7 | 0.00 | 0.00 | 0.00 | 81 | 1021.0 |
| 20260508035000 | 44 | 348 | 0.0 | 0.0 | 0.00 | 0.00 | 0.00 | 81 | 1021.0 |
| 20260508034000 | 44 | 8 | 0.0 | 0.0 | 0.00 | 0.00 | 0.00 | 80 | 1021.0 |
| 20260508033000 | 44 | 35 | 0.0 | 0.0 | 0.00 | 0.00 | 0.00 | 80 | 1021.0 |
| 20260508032000 | 44 | 24 | 0.9 | 0.9 | 0.00 | 0.00 | 0.00 | 80 | 1021.0 |
| 20260508031000 | 44 | 124 | 0.0 | 0.9 | 0.00 | 0.00 | 0.00 | 80 | 1021.0 |
| 20260508030000 | 43 | 246 | 0.0 | 0.0 | 0.00 | 0.00 | 0.00 | 79 | 1021.0 |
| 20260508025000 | 44 | 195 | 0.0 | 1.7 | 0.00 | 0.00 | 0.00 | 79 | 1021.0 |
| 20260508024000 | 44 | 22 | 2.6 | 3.5 | 0.00 | 0.00 | 0.00 | 79 | 1021.0 |
| 20260508023000 | 44 | 356 | 0.0 | 0.9 | 0.00 | 0.00 | 0.00 | 78 | 1021.0 |
| 20260508022000 | 44 | 208 | 0.0 | 0.0 | 0.00 | 0.00 | 0.00 | 79 | 1021.0 |
| 20260508021000 | 44 | 192 | 0.0 | 0.0 | 0.00 | 0.00 | 0.00 | 78 | 1021.0 |
| 20260508020000 | 45 | 1 | 0.0 | 0.0 | 0.00 | 0.00 | 0.00 | 78 | 1021.0 |
| 20260508015000 | 45 | 227 | 0.0 | 0.0 | 0.00 | 0.00 | 0.00 | 78 | 1021.0 |
| 20260508014000 | 45 | 176 | 0.0 | 0.9 | 0.00 | 0.00 | 0.00 | 78 | 1021.0 |
| 20260508013000 | 45 | 153 | 0.9 | 1.7 | 0.00 | 0.00 | 0.00 | 78 | 1021.0 |
| 20260508012000 | 45 | 328 | 0.0 | 0.0 | 0.00 | 0.00 | 0.00 | 78 | 1021.0 |
| 20260508011000 | 45 | 331 | 0.0 | 1.7 | 0.00 | 0.00 | 0.00 | 77 | 1021.0 |
| 20260508010000 | 45 | 200 | 0.0 | 0.9 | 0.00 | 0.00 | 0.00 | 77 | 1021.0 |
| 20260508005000 | 46 | 195 | 0.0 | 2.6 | 0.00 | 0.00 | 0.00 | 77 | 1021.0 |
| 20260508004000 | 46 | 27 | 0.9 | 1.7 | 0.00 | 0.00 | 0.00 | 77 | 1021.0 |
| 20260508003000 | 46 | 331 | 0.9 | 1.7 | 0.00 | 0.00 | 0.00 | 76 | 1021.0 |
| 20260508002000 | 46 | 328 | 0.0 | 0.0 | 0.00 | 0.00 | 0.00 | 76 | 1021.0 |
| 20260508001000 | 46 | 11 | 1.7 | 1.7 | 0.00 | 0.00 | 0.00 | 76 | 1021.0 |
| 20260508000000 | 46 | 188 | 0.0 | 0.0 | 0.00 | 0.00 | 0.00 | 76 | 1021.0 |
| 20260507235000 | 47 | 196 | 0.0 | 0.0 | 0.00 | 0.00 | 0.00 | 76 | 1021.0 |
| 20260507234000 | 47 | 247 | 0.0 | 0.0 | 0.00 | 0.00 | 0.00 | 75 | 1021.0 |
| 20260507233000 | 47 | 25 | 0.9 | 0.9 | 0.00 | 0.00 | 0.00 | 75 | 1021.0 |
| 20260507232000 | 47 | 21 | 1.7 | 3.5 | 0.00 | 0.00 | 0.00 | 75 | 1021.0 |
| 20260507231000 | 47 | 339 | 1.7 | 2.6 | 0.00 | 0.00 | 0.00 | 75 | 1021.0 |
| 20260507230000 | 47 | 319 | 0.0 | 1.7 | 0.00 | 0.00 | 0.00 | 75 | 1021.0 |
| 20260507225000 | 47 | 328 | 0.9 | 0.9 | 0.00 | 0.00 | 0.00 | 75 | 1021.0 |
| 20260507224001 | 47 | 28 | 1.7 | 1.7 | 0.00 | 0.00 | 0.00 | 74 | 1021.0 |
| 20260507223000 | 47 | 247 | 0.0 | 0.0 | 0.00 | 0.00 | 0.00 | 75 | 1021.0 |
| 20260507222000 | 47 | 167 | 0.0 | 1.7 | 0.00 | 0.00 | 0.00 | 73 | 1021.0 |
| 20260507221000 | 48 | 354 | 1.7 | 2.6 | 0.00 | 0.00 | 0.00 | 72 | 1021.0 |
| 20260507220000 | 48 | 103 | 0.0 | 1.7 | 0.00 | 0.00 | 0.00 | 72 | 1021.0 |
| 20260507215000 | 48 | 214 | 0.0 | 2.6 | 0.00 | 0.00 | 0.00 | 71 | 1021.0 |
| 20260507214000 | 49 | 348 | 0.9 | 3.5 | 0.00 | 0.00 | 0.00 | 70 | 1021.0 |
| 20260507213000 | 49 | 145 | 0.0 | 0.9 | 0.00 | 0.00 | 0.00 | 70 | 1021.0 |
| 20260507212000 | 49 | 174 | 0.0 | 0.9 | 0.00 | 0.00 | 0.00 | 70 | 1021.0 |
| 20260507211000 | 50 | 57 | 0.0 | 0.9 | 0.00 | 0.00 | 0.00 | 68 | 1021.0 |
| 20260507210000 | 50 | 22 | 0.9 | 1.7 | 0.00 | 0.00 | 0.00 | 68 | 1021.0 |
| 20260507205000 | 50 | 297 | 1.7 | 3.5 | 0.00 | 0.00 | 0.00 | 69 | 1021.0 |
| 20260507204000 | 50 | 185 | 0.0 | 1.7 | 0.00 | 0.00 | 0.00 | 69 | 1021.0 |
| 20260507203000 | 50 | 176 | 0.0 | 1.7 | 0.00 | 0.00 | 0.00 | 69 | 1021.0 |
| 20260507202000 | 50 | 66 | 1.7 | 3.5 | 0.00 | 0.00 | 0.00 | 69 | 1021.0 |
| 20260507201000 | 50 | 16 | 1.7 | 1.7 | 0.00 | 0.00 | 0.00 | 69 | 1021.0 |
| 20260507200000 | 50 | 111 | 0.0 | 0.9 | 0.00 | 0.00 | 0.00 | 68 | 1021.0 |
| 20260507195000 | 51 | 190 | 0.0 | 0.0 | 0.00 | 0.00 | 0.00 | 68 | 1021.0 |
| 20260507194000 | 51 | 18 | 0.0 | 1.7 | 0.00 | 0.00 | 0.00 | 67 | 1021.0 |
| 20260507193000 | 51 | 112 | 0.0 | 0.9 | 0.00 | 0.00 | 0.00 | 66 | 1021.0 |
| 20260507192000 | 51 | 159 | 0.9 | 1.7 | 0.00 | 0.00 | 0.00 | 66 | 1021.0 |
| 20260507191000 | 51 | 271 | 2.6 | 3.5 | 0.00 | 0.00 | 0.00 | 64 | 1021.0 |
| 20260507190002 | 52 | 0 | 0.0 | 0.0 | 0.00 | 0.00 | 0.00 | 66 | 1021.0 |
| 20260507185000 | 52 | 0 | 0.0 | 0.0 | 0.00 | 0.00 | 0.00 | 63 | 1021.0 |
| 20260507184000 | 53 | 0 | 0.0 | 0.0 | 0.00 | 0.00 | 0.00 | 63 | 1021.0 |
| 20260507183000 | 53 | 0 | 0.0 | 0.0 | 0.00 | 0.00 | 0.00 | 62 | 1021.0 |
| 20260507182000 | 54 | 0 | 0.0 | 0.0 | 0.00 | 0.00 | 0.00 | 62 | 1021.0 |
| 20260507181000 | 54 | 0 | 0.0 | 0.0 | 0.00 | 0.00 | 0.00 | 61 | 1021.0 |
| 20260507180000 | 54 | 0 | 0.0 | 0.0 | 0.00 | 0.00 | 0.00 | 60 | 1021.0 |
| 20260507175000 | 55 | 0 | 0.0 | 0.0 | 0.00 | 0.00 | 0.00 | 59 | 1021.0 |
| 20260507174000 | 56 | 238 | 0.0 | 0.0 | 0.00 | 0.00 | 0.00 | 57 | 1021.0 |
| 20260507173000 | 56 | 214 | 0.0 | 0.9 | 0.00 | 0.00 | 0.00 | 55 | 1021.0 |
| 20260507172000 | 57 | 160 | 1.7 | 3.5 | 0.00 | 0.00 | 0.00 | 54 | 1021.0 |
| 20260507171000 | 58 | 156 | 0.9 | 2.6 | 0.00 | 0.00 | 0.00 | 52 | 1021.0 |
| 20260507170000 | 58 | 170 | 0.9 | 2.6 | 0.00 | 0.00 | 0.00 | 51 | 1021.0 |
| 20260507165000 | 59 | 182 | 0.0 | 1.7 | 0.00 | 0.00 | 0.00 | 50 | 1021.0 |
| 20260507164000 | 60 | 183 | 0.0 | 1.7 | 0.00 | 0.00 | 0.00 | 48 | 1021.0 |
| 20260507163000 | 60 | 225 | 1.7 | 3.5 | 0.00 | 0.00 | 0.00 | 47 | 1021.0 |
| 20260507162000 | 61 | 187 | 0.9 | 2.6 | 0.00 | 0.00 | 0.00 | 46 | 1021.0 |
| 20260507161000 | 62 | 208 | 0.0 | 5.2 | 0.00 | 0.00 | 0.00 | 44 | 1021.0 |
| 20260507160000 | 62 | 175 | 0.9 | 3.5 | 0.00 | 0.00 | 0.00 | 42 | 1021.0 |
| 20260507155000 | 63 | 183 | 1.7 | 3.5 | 0.00 | 0.00 | 0.00 | 41 | 1021.0 |
| 20260507154000 | 63 | 182 | 1.7 | 5.2 | 0.00 | 0.00 | 0.00 | 40 | 1021.0 |
| 20260507153000 | 63 | 208 | 3.5 | 6.1 | 0.00 | 0.00 | 0.00 | 40 | 1021.0 |
| 20260507152000 | 64 | 225 | 3.5 | 5.2 | 0.00 | 0.00 | 0.00 | 39 | 1021.0 |
| 20260507151000 | 63 | 171 | 1.7 | 4.3 | 0.00 | 0.00 | 0.00 | 40 | 1021.0 |
| 20260507150000 | 64 | 247 | 0.0 | 6.1 | 0.00 | 0.00 | 0.00 | 39 | 1021.0 |
| 20260507145000 | 64 | 212 | 1.7 | 6.1 | 0.00 | 0.00 | 0.00 | 38 | 1021.0 |
| 20260507144000 | 64 | 193 | 3.5 | 5.2 | 0.00 | 0.00 | 0.00 | 37 | 1021.0 |
| 20260507143000 | 65 | 171 | 2.6 | 3.5 | 0.00 | 0.00 | 0.00 | 36 | 1021.0 |
| 20260507142000 | 66 | 99 | 3.5 | 5.2 | 0.00 | 0.00 | 0.00 | 38 | 1021.0 |
| 20260507141000 | 66 | 176 | 1.7 | 5.2 | 0.00 | 0.00 | 0.00 | 37 | 1021.0 |
| 20260507140000 | 66 | 210 | 2.6 | 4.3 | 0.00 | 0.00 | 0.00 | 36 | 1021.0 |
| 20260507135000 | 67 | 195 | 0.9 | 6.1 | 0.00 | 0.00 | 0.00 | 35 | 1021.0 |
| 20260507134000 | 67 | 207 | 1.7 | 7.0 | 0.00 | 0.00 | 0.00 | 37 | 1021.0 |
| 20260507133000 | 67 | 112 | 3.5 | 10.4 | 0.00 | 0.00 | 0.00 | 35 | 1021.0 |
| 20260507132000 | 67 | 155 | 1.7 | 7.8 | 0.00 | 0.00 | 0.00 | 33 | 1021.0 |
| 20260507131000 | 67 | 76 | 3.5 | 7.8 | 0.00 | 0.00 | 0.00 | 36 | 1021.0 |
| 20260507130000 | 67 | 142 | 4.3 | 6.1 | 0.00 | 0.00 | 0.00 | 36 | 1021.0 |
| 20260507125000 | 67 | 171 | 3.5 | 10.4 | 0.00 | 0.00 | 0.00 | 37 | 1021.0 |
| 20260507124000 | 67 | 162 | 3.5 | 4.3 | 0.00 | 0.00 | 0.00 | 37 | 1021.0 |
| 20260507123000 | 66 | 149 | 4.3 | 7.8 | 0.00 | 0.00 | 0.00 | 37 | 1021.0 |
| 20260507122000 | 65 | 173 | 1.7 | 5.2 | 0.00 | 0.00 | 0.00 | 39 | 1021.0 |
| 20260507121000 | 66 | 222 | 2.6 | 7.8 | 0.00 | 0.00 | 0.00 | 41 | 1021.0 |
| 20260507120000 | 66 | 103 | 5.2 | 9.6 | 0.00 | 0.00 | 0.00 | 38 | 1021.0 |
| 20260507115000 | 65 | 164 | 1.7 | 8.7 | 0.00 | 0.00 | 0.00 | 36 | 1021.0 |
| 20260507114623 | 66 | 158 | 5.2 | 8.7 | 0.00 | 0.00 | 0.00 | 36 | 1021.0 |
| 20260507114000 | 66 | 188 | 3.5 | 7.0 | 0.00 | 0.00 | 0.00 | 36 | 1021.0 |
| 20260507113000 | 66 | 0 | 0.0 | 0.0 | 0.00 | 0.00 | 0.00 | 38 | 1021.0 |
| 20260507112000 | 65 | 211 | 1.7 | 6.1 | 0.00 | 0.00 | 0.00 | 39 | 1021.0 |
| 20260507111000 | 65 | 242 | 2.6 | 5.2 | 0.00 | 0.00 | 0.00 | 42 | 1021.0 |
| 20260507110000 | 64 | 71 | 1.7 | 7.8 | 0.00 | 0.00 | 0.00 | 42 | 1021.0 |
| 20260507105000 | 65 | 192 | 1.7 | 5.2 | 0.00 | 0.00 | 0.00 | 41 | 1021.0 |
| 20260507104000 | 64 | 161 | 1.7 | 4.3 | 0.00 | 0.00 | 0.00 | 43 | 1021.0 |
| 20260507103000 | 64 | 193 | 2.6 | 3.5 | 0.00 | 0.00 | 0.00 | 40 | 1021.0 |